CFS weather

Coffs Harbour Airport
Coffs Harbour, New South Wales, Australia

Public forecast

Using degrees Celsius for public forecast. Weather courtesy of forecast.io.

METAR (pilot weather report)

Closest report is Grafton Airport, 34.0 nm (62.9 km) N. Retrieved 2017/05/28 06:00 UTC (30 minutes ago):

YGFN 280600Z AUTO 02005KT 9999 // NCD 19/14 Q1014

TAF (pilot weather forecast)

Forecast is more than 6 hours old.

Closest forecast is Taree Airport, 99.1 nm (183.5 km) SSW. Retrieved 2017/05/27 20:33 UTC (10 hours ago):

TAF YTRE 271913Z 2720/2808 VRB05KT 9999 SCT010 FM280000 32010KT 9999 SCT050 FM280700 26005KT CAVOK PROB40 2720/2722 0200 FG BKN002